ZYCCZYHB

Guest
Details From ZYCC - LONGJIA
To ZYHB - TAIPING
Flight Number -
Tags generated
Created
Modified
Stats Distance 101 nm / 187 km
Max Altitude 0 ft / 0 m
Waypoints 3
Social Downloads 2
Likes 0
Share VATSIM

Download

Looking for another format? Having issues loading an existing format? Contact us
Advertisement - Login to hide

Notes

Basic altitude profile: - Ascent Rate: 2500ft/min - Ascent Speed: 250kts - Cruise Altitude: 35000ft - Cruise Speed: 420kts - Descent Rate: 1500ft/min - Descent Speed: 250kts

Route

ZYCC HRB ZYHB

ID Type Via Altitude Latitude Longitude Leg Dist Tot Dist Heading (true) Name
O ZYCC APT - 0 ft / 0 m 43.99621˚ 125.68535˚ - 0 nm - LONGJIA
HRB VOR - 0 ft / 0 m 45.62333˚ 126.26000˚ 100 nm 100 nm 14° / 14° HARBIN VOR-DME
O ZYHB APT - 0 ft / 0 m 45.62340˚ 126.25033˚ 0 nm 101 nm 271° / 271° TAIPING

Altitude Profile

Advertisement - Login to hide

ZYCC

Details ICAO ZYCC (CGQ)
Name LONGJIA
Region China
Timezone Asia/Harbin (UTC+8.0)
Stats Elevation 706 ft / 215 m (AMSL)
Location 43.996214° 125.685355°
Runways 1
Magnetic Variation 10.126° W

METAR

ZYCC 130900Z 27001MPS 4000 FU NSC M17/M25 Q1036 NOSIG

Decode

TAF

Not found

Departure Runways

ID Width Length Bearing (true) Bearing (mag) Surface Threshold Offset Overrun Length
06 148 ft / 45 m 10,485 ft / 3,196 m 49.12° 59.25° Concrete 0 ft / 0 m 198 ft / 60 m
24 148 ft / 45 m 10,485 ft / 3,196 m 229.14° 239.27° Concrete 0 ft / 0 m 198 ft / 60 m

ZYHB

Details ICAO ZYHB (HRB)
Name TAIPING
Region China
Timezone Asia/Harbin (UTC+8.0)
Stats Elevation 457 ft / 139 m (AMSL)
Location 45.623401° 126.250326°
Runways 1
Magnetic Variation 10.689° W

METAR

ZYHB 130900Z 21003MPS CAVOK M21/M25 Q1035 NOSIG

Decode

TAF

Not found

Destination Runways

ID Width Length Bearing (true) Bearing (mag) Surface Threshold Offset Overrun Length
05 148 ft / 45 m 10,495 ft / 3,199 m 39.28° 49.97° Asphalt 0 ft / 0 m 197 ft / 60 m
23 148 ft / 45 m 10,495 ft / 3,199 m 219.30° 229.99° Asphalt 0 ft / 0 m 197 ft / 60 m

Approach Navaids

Runway Type Ident Frequency Range Bearing (true) Bearing (mag) Slope Elevation
05 Localiser ILL 110.30 MHz 18 nm / 33 km 39.26° 49.95° - 456 ft / 139 m (AMSL)
05 Glidescope ILL 110.30 MHz 10 nm / 19 km 39.29° 49.98° 3.00° 456 ft / 139 m (AMSL)
23 Localiser IMJ 109.90 MHz 18 nm / 33 km 219.23° 229.92° - 456 ft / 139 m (AMSL)
23 Glidescope IMJ 109.90 MHz 10 nm / 19 km 219.29° 229.98° 3.00° 456 ft / 139 m (AMSL)

Popular Alternatives